Observation data for Memphis on 09/11/2017      Previous  Date       Current Mesonet Observations  Soil Data  Daily Summary Page  Observations in Plain Language
KMES 110500Z 02000KT 18/10 A3021 RMK A01 T01810097  RH  060%=      5-min Rain = 0
KMES 110505Z 35001KT 18/10 A3021 RMK A01 T01760097  RH  062%=      5-min Rain = 0
KMES 110510Z 34001KT 18/10 A3021 RMK A01 T01760098  RH  062%=      5-min Rain = 0
KMES 110515Z 35001KT 18/10 A3021 RMK A01 T01750097  RH  062%=      5-min Rain = 0
KMES 110520Z 35002KT 17/10 A3021 RMK A01 T01730097  RH  063%=      5-min Rain = 0
KMES 110525Z 36002KT 17/10 A3021 RMK A01 T01730097  RH  063%=      5-min Rain = 0
KMES 110530Z 02002KT 17/09 A3021 RMK A01 T01690094  RH  063%=      5-min Rain = 0
KMES 110535Z 02002KT 16/09 A3022 RMK A01 T01640094  RH  065%=      5-min Rain = 0
KMES 110540Z 03002KT 16/09 A3022 RMK A01 T01640094  RH  065%=      5-min Rain = 0
KMES 110545Z 02002KT 17/10 A3022 RMK A01 T01660096  RH  065%=      5-min Rain = 0
KMES 110550Z 01002KT 17/10 A3021 RMK A01 T01680096  RH  064%=      5-min Rain = 0
KMES 110555Z 34002KT 17/10 A3021 RMK A01 T01680095  RH  064%=      5-min Rain = 0
KMES 110600Z 33002KT 16/09 A3021 RMK A01 T01640094  RH  066%=      5-min Rain = 0
KMES 110605Z 34002KT 16/10 A3021 RMK A01 T01580095  RH  068%=      5-min Rain = 0
KMES 110610Z 34001KT 16/10 A3021 RMK A01 T01560096  RH  069%=      5-min Rain = 0
KMES 110615Z 34002KT 16/10 A3021 RMK A01 T01560095  RH  069%=      5-min Rain = 0
KMES 110620Z 34002KT 16/09 A3021 RMK A01 T01550094  RH  069%=      5-min Rain = 0
KMES 110625Z 33002KT 15/09 A3021 RMK A01 T01540094  RH  070%=      5-min Rain = 0
KMES 110630Z 34002KT 15/09 A3021 RMK A01 T01530094  RH  070%=      5-min Rain = 0
KMES 110635Z 35002KT 15/09 A302 RMK A01 T01500092  RH  070%=      5-min Rain = 0
KMES 110640Z 35002KT 15/09 A3021 RMK A01 T01460091  RH  072%=      5-min Rain = 0
KMES 110645Z 36003KT 14/09 A3021 RMK A01 T01440092  RH  073%=      5-min Rain = 0
KMES 110650Z 36002KT 15/09 A3021 RMK A01 T01450093  RH  073%=      5-min Rain = 0
KMES 110655Z 36002KT 15/09 A302 RMK A01 T01460094  RH  073%=      5-min Rain = 0
KMES 110700Z 35002KT 15/09 A302 RMK A01 T01480094  RH  073%=      5-min Rain = 0
KMES 110705Z 34002KT 15/10 A302 RMK A01 T01500095  RH  072%=      5-min Rain = 0
KMES 110710Z 33002KT 15/09 A302 RMK A01 T01500093  RH  071%=      5-min Rain = 0
KMES 110715Z 34002KT 15/09 A302 RMK A01 T01490094  RH  072%=      5-min Rain = 0
KMES 110720Z 34002KT 15/09 A302 RMK A01 T01480094  RH  072%=      5-min Rain = 0
KMES 110725Z 33003KT 15/10 A302 RMK A01 T01500095  RH  072%=      5-min Rain = 0
KMES 110730Z 32003KT 15/09 A302 RMK A01 T01500094  RH  072%=      5-min Rain = 0
KMES 110735Z 32003KT 15/09 A302 RMK A01 T01470094  RH  073%=      5-min Rain = 0
KMES 110740Z 32003KT 15/09 A302 RMK A01 T01470094  RH  073%=      5-min Rain = 0
KMES 110745Z 32002KT 15/09 A302 RMK A01 T01470094  RH  073%=      5-min Rain = 0
KMES 110750Z 32001KT 15/09 A302 RMK A01 T01460092  RH  072%=      5-min Rain = 0
KMES 110755Z 32002KT 14/09 A302 RMK A01 T01440092  RH  073%=      5-min Rain = 0
KMES 110800Z 31002KT 14/09 A3019 RMK A01 T01440094  RH  074%=      5-min Rain = 0
KMES 110805Z 32002KT 14/09 A3019 RMK A01 T01440094  RH  074%=      5-min Rain = 0
KMES 110810Z 32002KT 14/09 A3019 RMK A01 T01430092  RH  074%=      5-min Rain = 0
KMES 110815Z 31001KT 14/09 A3019 RMK A01 T01390090  RH  074%=      5-min Rain = 0
KMES 110820Z 31002KT 14/09 A3019 RMK A01 T01360089  RH  076%=      5-min Rain = 0
KMES 110825Z 32002KT 14/09 A302 RMK A01 T01350090  RH  076%=      5-min Rain = 0
KMES 110830Z 32002KT 13/09 A3019 RMK A01 T01330089  RH  077%=      5-min Rain = 0
KMES 110835Z 32002KT 13/09 A3019 RMK A01 T01310089  RH  078%=      5-min Rain = 0
KMES 110840Z 33002KT 13/09 A3019 RMK A01 T01310089  RH  078%=      5-min Rain = 0
KMES 110845Z 34003KT 13/09 A3019 RMK A01 T01320090  RH  078%=      5-min Rain = 0
KMES 110850Z 34003KT 13/09 A3019 RMK A01 T01320090  RH  078%=      5-min Rain = 0
KMES 110855Z 34003KT 13/09 A3019 RMK A01 T01320090  RH  078%=      5-min Rain = 0
KMES 110900Z 31002KT 13/09 A3019 RMK A01 T01330091  RH  078%=      5-min Rain = 0
KMES 110905Z 32001KT 13/09 A3019 RMK A01 T01340091  RH  078%=      5-min Rain = 0
KMES 110910Z 32002KT 13/09 A302 RMK A01 T01330090  RH  077%=      5-min Rain = 0
KMES 110915Z 32002KT 13/09 A302 RMK A01 T01320089  RH  078%=      5-min Rain = 0
KMES 110920Z 32002KT 13/09 A3019 RMK A01 T01310089  RH  078%=      5-min Rain = 0
KMES 110925Z 32001KT 13/09 A3019 RMK A01 T01300089  RH  079%=      5-min Rain = 0
KMES 110930Z 32001KT 13/09 A3019 RMK A01 T01290088  RH  079%=      5-min Rain = 0
KMES 110935Z 33002KT 13/09 A302 RMK A01 T01260087  RH  080%=      5-min Rain = 0
KMES 110940Z 34002KT 13/09 A302 RMK A01 T01250088  RH  081%=      5-min Rain = 0
KMES 110945Z 34003KT 13/09 A302 RMK A01 T01250089  RH  081%=      5-min Rain = 0
KMES 110950Z 33003KT 13/09 A302 RMK A01 T01270091  RH  081%=      5-min Rain = 0
KMES 110955Z 33003KT 13/09 A302 RMK A01 T01290091  RH  080%=      5-min Rain = 0
KMES 111000Z 32003KT 13/09 A302 RMK A01 T01300091  RH  080%=      5-min Rain = 0
KMES 111005Z 32003KT 13/09 A302 RMK A01 T01310092  RH  079%=      5-min Rain = 0
KMES 111010Z 33002KT 13/09 A302 RMK A01 T01310091  RH  079%=      5-min Rain = 0
KMES 111015Z 32001KT 13/09 A302 RMK A01 T01300089  RH  078%=      5-min Rain = 0
KMES 111020Z 32002KT 13/09 A302 RMK A01 T01290089  RH  079%=      5-min Rain = 0
KMES 111025Z 32002KT 13/09 A302 RMK A01 T01270089  RH  080%=      5-min Rain = 0
KMES 111030Z 31003KT 13/09 A302 RMK A01 T01280091  RH  081%=      5-min Rain = 0
KMES 111035Z 31003KT 13/09 A302 RMK A01 T01280091  RH  081%=      5-min Rain = 0
KMES 111040Z 32002KT 13/09 A302 RMK A01 T01280091  RH  081%=      5-min Rain = 0
KMES 111045Z 31002KT 13/09 A302 RMK A01 T01280091  RH  081%=      5-min Rain = 0
KMES 111050Z 32002KT 13/09 A302 RMK A01 T01280091  RH  081%=      5-min Rain = 0
KMES 111055Z 31002KT 13/09 A302 RMK A01 T01280091  RH  080%=      5-min Rain = 0
KMES 111100Z 31002KT 13/09 A302 RMK A01 T01260088  RH  080%=      5-min Rain = 0
KMES 111105Z 31002KT 12/09 A302 RMK A01 T01230086  RH  081%=      5-min Rain = 0
KMES 111110Z 31001KT 12/09 A302 RMK A01 T01210086  RH  082%=      5-min Rain = 0
KMES 111115Z 31002KT 12/09 A302 RMK A01 T01200086  RH  082%=      5-min Rain = 0
KMES 111120Z 31002KT 12/09 A302 RMK A01 T01200087  RH  083%=      5-min Rain = 0
KMES 111125Z 32002KT 12/09 A302 RMK A01 T01220090  RH  083%=      5-min Rain = 0
KMES 111130Z 32003KT 12/09 A302 RMK A01 T01240092  RH  083%=      5-min Rain = 0
KMES 111135Z 31003KT 13/09 A302 RMK A01 T01260091  RH  082%=      5-min Rain = 0
KMES 111140Z 31001KT 13/09 A3019 RMK A01 T01260090  RH  081%=      5-min Rain = 0
KMES 111145Z 33002KT 12/09 A302 RMK A01 T01240088  RH  081%=      5-min Rain = 0
KMES 111150Z 34003KT 12/09 A302 RMK A01 T01230088  RH  082%=      5-min Rain = 0
KMES 111155Z 33002KT 12/09 A302 RMK A01 T01220088  RH  082%=      5-min Rain = 0
KMES 111200Z 32002KT 12/09 A302 RMK A01 T01230089  RH  082%=      5-min Rain = 0
KMES 111205Z 31001KT 12/09 A302 RMK A01 T01230089  RH  082%=      5-min Rain = 0
KMES 111210Z 32002KT 12/09 A302 RMK A01 T01230089  RH  082%=      5-min Rain = 0
KMES 111215Z 32002KT 12/09 A302 RMK A01 T01220088  RH  082%=      5-min Rain = 0
KMES 111220Z 32002KT 12/09 A302 RMK A01 T01210087  RH  082%=      5-min Rain = 0
KMES 111225Z 33002KT 12/09 A302 RMK A01 T01190086  RH  083%=      5-min Rain = 0
KMES 111230Z 33002KT 12/09 A302 RMK A01 T01170086  RH  084%=      5-min Rain = 0
KMES 111235Z 34002KT 12/09 A302 RMK A01 T01180088  RH  084%=      5-min Rain = 0
KMES 111240Z 34001KT 12/09 A302 RMK A01 T01190090  RH  084%=      5-min Rain = 0
KMES 111245Z 33002KT 12/09 A302 RMK A01 T01230092  RH  084%=      5-min Rain = 0
KMES 111250Z 32002KT 13/09 A302 RMK A01 T01260094  RH  083%=      5-min Rain = 0
KMES 111255Z 33002KT 13/10 A302 RMK A01 T01300096  RH  082%=      5-min Rain = 0
KMES 111300Z 32001KT 13/10 A302 RMK A01 T01320096  RH  081%=      5-min Rain = 0
KMES 111305Z 33001KT 13/10 A302 RMK A01 T01340097  RH  080%=      5-min Rain = 0
KMES 111310Z 33000KT 14/10 A302 RMK A01 T01390101  RH  080%=      5-min Rain = 0
KMES 111315Z 33000KT 14/10 A302 RMK A01 T01440102  RH  078%=      5-min Rain = 0
KMES 111320Z 33001KT 15/10 A302 RMK A01 T01480102  RH  076%=      5-min Rain = 0
KMES 111325Z 33001KT 15/10 A302 RMK A01 T01520103  RH  075%=      5-min Rain = 0
KMES 111330Z 33000KT 16/11 A302 RMK A01 T01570106  RH  074%=      5-min Rain = 0
KMES 111335Z 33000KT 17/11 A302 RMK A01 T01650109  RH  072%=      5-min Rain = 0
KMES 111340Z 33000KT 17/11 A3021 RMK A01 T01710110  RH  070%=      5-min Rain = 0
KMES 111345Z 36000KT 18/11 A3021 RMK A01 T01770111  RH  068%=      5-min Rain = 0
KMES 111350Z 02000KT 18/11 A3021 RMK A01 T01810111  RH  066%=      5-min Rain = 0
KMES 111355Z 05000KT 19/11 A3021 RMK A01 T01870112  RH  064%=      5-min Rain = 0
KMES 111400Z 13000KT 19/11 A3021 RMK A01 T01940106  RH  059%=      5-min Rain = 0
KMES 111405Z 15001KT 20/11 A3021 RMK A01 T01970105  RH  057%=      5-min Rain = 0
KMES 111410Z 17001KT 20/10 A3021 RMK A01 T01980104  RH  056%=      5-min Rain = 0
KMES 111415Z 19002KT 20/10 A3021 RMK A01 T01990103  RH  056%=      5-min Rain = 0
KMES 111420Z 18003KT 20/10 A3021 RMK A01 T02010104  RH  055%=      5-min Rain = 0
KMES 111425Z 20003KT 20/10 A3021 RMK A01 T02030104  RH  055%=      5-min Rain = 0
KMES 111430Z 19002KT 21/11 A3021 RMK A01 T02080106  RH  054%=      5-min Rain = 0
KMES 111435Z 18003KT 21/11 A3021 RMK A01 T02130106  RH  052%=      5-min Rain = 0
KMES 111440Z 19002KT 22/11 A3021 RMK A01 T02160107  RH  052%=      5-min Rain = 0
KMES 111445Z 21003KT 22/11 A3021 RMK A01 T02180107  RH  051%=      5-min Rain = 0
KMES 111450Z 19004G9KT 22/11 A3021 RMK A01 T02190108  RH  051%=      5-min Rain = 0
KMES 111455Z 19006KT 23/10 A3021 RMK A01 T02250103  RH  048%=      5-min Rain = 0
KMES 111500Z 21006KT 23/11 A3021 RMK A01 T02260105  RH  048%=      5-min Rain = 0
KMES 111505Z 19007KT 23/10 A3021 RMK A01 T02270102  RH  047%=      5-min Rain = 0
KMES 111510Z 21005KT 23/10 A3021 RMK A01 T02280103  RH  047%=      5-min Rain = 0
KMES 111515Z 20007KT 23/10 A3021 RMK A01 T02300101  RH  045%=      5-min Rain = 0
KMES 111520Z 20008KT 23/10 A3021 RMK A01 T02300101  RH  045%=      5-min Rain = 0
KMES 111525Z 20007KT 23/10 A3021 RMK A01 T02320099  RH  045%=      5-min Rain = 0
KMES 111530Z 20009KT 23/10 A3021 RMK A01 T02320100  RH  045%=      5-min Rain = 0
KMES 111535Z 20008KT 23/10 A3021 RMK A01 T02330100  RH  044%=      5-min Rain = 0
KMES 111540Z 19006KT 23/10 A3021 RMK A01 T02330100  RH  044%=      5-min Rain = 0
KMES 111545Z 22006KT 24/10 A3021 RMK A01 T02350102  RH  044%=      5-min Rain = 0
KMES 111550Z 22007KT 24/10 A3021 RMK A01 T02380101  RH  043%=      5-min Rain = 0
KMES 111555Z 23007KT 24/10 A3021 RMK A01 T02380101  RH  043%=      5-min Rain = 0
KMES 111600Z 22007KT 24/10 A3021 RMK A01 T02400101  RH  043%=      5-min Rain = 0
KMES 111605Z 21006KT 24/10 A3021 RMK A01 T02410101  RH  043%=      5-min Rain = 0
KMES 111610Z 18006KT 24/10 A3021 RMK A01 T02440100  RH  042%=      5-min Rain = 0
KMES 111615Z 18004G9KT 24/10 A3021 RMK A01 T02440099  RH  041%=      5-min Rain = 0
KMES 111620Z 17003KT 25/10 A302 RMK A01 T02510099  RH  040%=      5-min Rain = 0
KMES 111625Z 22006KT 25/10 A302 RMK A01 T02490100  RH  040%=      5-min Rain = 0
KMES 111630Z 23005KT 25/10 A302 RMK A01 T02480099  RH  040%=      5-min Rain = 0
KMES 111635Z 21005KT 25/10 A302 RMK A01 T02500099  RH  040%=      5-min Rain = 0
KMES 111640Z 23004KT 25/10 A302 RMK A01 T02510100  RH  040%=      5-min Rain = 0
KMES 111645Z 22003KT 26/10 A302 RMK A01 T02560100  RH  039%=      5-min Rain = 0
KMES 111650Z 22005KT 26/10 A302 RMK A01 T02600100  RH  038%=      5-min Rain = 0
KMES 111655Z 22004KT 26/10 A302 RMK A01 T02590100  RH  038%=      5-min Rain = 0
KMES 111700Z 23005KT 26/10 A302 RMK A01 T02580097  RH  037%=      5-min Rain = 0
KMES 111705Z 23005KT 26/10 A3019 RMK A01 T02590100  RH  038%=      5-min Rain = 0
KMES 111710Z 24006KT 26/10 A3019 RMK A01 T02600101  RH  038%=      5-min Rain = 0
KMES 111715Z 21005KT 26/10 A3019 RMK A01 T02620098  RH  037%=      5-min Rain = 0
KMES 111720Z 24006KT 26/10 A3019 RMK A01 T02630096  RH  036%=      5-min Rain = 0
KMES 111725Z 22005KT 26/09 A3019 RMK A01 T02620092  RH  035%=      5-min Rain = 0
KMES 111730Z 23005KT 27/09 A3018 RMK A01 T02660089  RH  034%=      5-min Rain = 0
KMES 111735Z 23007KT 27/09 A3018 RMK A01 T02680090  RH  033%=      5-min Rain = 0
KMES 111740Z 22006KT 27/09 A3018 RMK A01 T02700091  RH  033%=      5-min Rain = 0
KMES 111745Z 23005KT 27/09 A3017 RMK A01 T02680089  RH  033%=      5-min Rain = 0
KMES 111750Z 23005KT 27/09 A3017 RMK A01 T02690089  RH  033%=      5-min Rain = 0
KMES 111755Z 24005KT 27/09 A3017 RMK A01 T02720093  RH  034%=      5-min Rain = 0
KMES 111800Z 21004KT 27/09 A3017 RMK A01 T02730092  RH  033%=      5-min Rain = 0
KMES 111805Z 20004KT 28/09 A3017 RMK A01 T02750093  RH  033%=      5-min Rain = 0
KMES 111810Z 23002KT 27/09 A3017 RMK A01 T02740093  RH  033%=      5-min Rain = 0
KMES 111815Z 23003KT 28/09 A3016 RMK A01 T02790094  RH  033%=      5-min Rain = 0
KMES 111820Z 20005KT 28/10 A3016 RMK A01 T02810095  RH  032%=      5-min Rain = 0
KMES 111825Z 21005KT 28/10 A3016 RMK A01 T02840097  RH  032%=      5-min Rain = 0
KMES 111830Z 20005KT 28/10 A3016 RMK A01 T02830097  RH  032%=      5-min Rain = 0
KMES 111835Z 32002KT 28/10 A3016 RMK A01 T02800096  RH  033%=      5-min Rain = 0
KMES 111840Z 33003KT 28/10 A3015 RMK A01 T02800100  RH  034%=      5-min Rain = 0
KMES 111845Z 19003KT 28/10 A3015 RMK A01 T02830098  RH  032%=      5-min Rain = 0
KMES 111850Z 18001KT 29/10 A3015 RMK A01 T02850098  RH  032%=      5-min Rain = 0
KMES 111855Z 23004KT 29/10 A3015 RMK A01 T02900099  RH  031%=      5-min Rain = 0
KMES 111900Z 12002KT 29/10 A3014 RMK A01 T02910099  RH  031%=      5-min Rain = 0
KMES 111905Z 05004KT 29/10 A3014 RMK A01 T02910100  RH  031%=      5-min Rain = 0
KMES 111910Z 06003KT 29/10 A3014 RMK A01 T02890099  RH  031%=      5-min Rain = 0
KMES 111915Z 05003KT 29/10 A3014 RMK A01 T02920096  RH  030%=      5-min Rain = 0
KMES 111920Z 21004KT 29/10 A3013 RMK A01 T02920097  RH  031%=      5-min Rain = 0
KMES 111925Z 24003KT 29/10 A3013 RMK A01 T02920097  RH  031%=      5-min Rain = 0
KMES 111930Z 19003KT 29/10 A3013 RMK A01 T02930095  RH  030%=      5-min Rain = 0
KMES 111935Z 16002KT 30/09 A3013 RMK A01 T02970094  RH  029%=      5-min Rain = 0
KMES 111940Z 21004KT 30/10 A3012 RMK A01 T03010095  RH  029%=      5-min Rain = 0
KMES 111945Z 26002KT 30/10 A3012 RMK A01 T02980096  RH  029%=      5-min Rain = 0
KMES 111950Z 24003KT 30/10 A3012 RMK A01 T02970096  RH  030%=      5-min Rain = 0
KMES 111955Z 25003KT 30/10 A3011 RMK A01 T02980097  RH  029%=      5-min Rain = 0
KMES 112000Z 26002KT 30/10 A3011 RMK A01 T03000095  RH  029%=      5-min Rain = 0
KMES 112005Z 24002KT 30/10 A3011 RMK A01 T03000095  RH  029%=      5-min Rain = 0
KMES 112010Z 20003KT 31/09 A301 RMK A01 T03050094  RH  028%=      5-min Rain = 0
KMES 112015Z 20004KT 31/09 A301 RMK A01 T03060094  RH  028%=      5-min Rain = 0
KMES 112020Z 23002KT 31/10 A301 RMK A01 T03070095  RH  028%=      5-min Rain = 0
KMES 112025Z 02003KT 31/10 A3009 RMK A01 T03100097  RH  028%=      5-min Rain = 0
KMES 112030Z 35003KT 31/10 A3009 RMK A01 T03100099  RH  028%=      5-min Rain = 0
KMES 112035Z 33004KT 31/10 A3009 RMK A01 T03110099  RH  028%=      5-min Rain = 0
KMES 112040Z 31005KT 31/10 A3009 RMK A01 T03090097  RH  028%=      5-min Rain = 0
KMES 112045Z 32004KT 31/10 A3009 RMK A01 T03060097  RH  028%=      5-min Rain = 0
KMES 112050Z 01001KT 31/10 A3009 RMK A01 T03100099  RH  028%=      5-min Rain = 0
KMES 112055Z 05004G10KT 31/10 A3008 RMK A01 T03140100  RH  028%=      5-min Rain = 0
KMES 112100Z 13005G11KT 31/10 A3008 RMK A01 T03140100  RH  028%=      5-min Rain = 0
KMES 112105Z 13005KT 32/10 A3008 RMK A01 T03160100  RH  027%=      5-min Rain = 0
KMES 112110Z 13005KT 32/10 A3008 RMK A01 T03150100  RH  027%=      5-min Rain = 0
KMES 112115Z 09004KT 32/10 A3008 RMK A01 T03160100  RH  027%=      5-min Rain = 0
KMES 112120Z 08005KT 32/10 A3007 RMK A01 T03170100  RH  027%=      5-min Rain = 0
KMES 112125Z 09005KT 32/10 A3007 RMK A01 T03150101  RH  028%=      5-min Rain = 0
KMES 112130Z 12005KT 32/10 A3007 RMK A01 T03150099  RH  027%=      5-min Rain = 0
KMES 112135Z 15005KT 32/10 A3007 RMK A01 T03160099  RH  027%=      5-min Rain = 0
KMES 112140Z 17004KT 31/10 A3007 RMK A01 T03140099  RH  027%=      5-min Rain = 0
KMES 112145Z 16003KT 32/10 A3006 RMK A01 T03160098  RH  027%=      5-min Rain = 0
KMES 112150Z 14006KT 32/10 A3006 RMK A01 T03160099  RH  027%=      5-min Rain = 0
KMES 112155Z 14006KT 32/10 A3006 RMK A01 T03170099  RH  027%=      5-min Rain = 0
KMES 112200Z 14005KT 32/10 A3006 RMK A01 T03160099  RH  027%=      5-min Rain = 0
KMES 112205Z 17004KT 32/10 A3006 RMK A01 T03160099  RH  027%=      5-min Rain = 0
KMES 112210Z 17003KT 32/10 A3006 RMK A01 T03160100  RH  027%=      5-min Rain = 0
KMES 112215Z 15006KT 32/10 A3006 RMK A01 T03160099  RH  027%=      5-min Rain = 0
KMES 112220Z 21005KT 32/10 A3006 RMK A01 T03180099  RH  027%=      5-min Rain = 0
KMES 112225Z 19004KT 32/10 A3005 RMK A01 T03180099  RH  027%=      5-min Rain = 0
KMES 112230Z 18002KT 32/10 A3005 RMK A01 T03180097  RH  026%=      5-min Rain = 0
KMES 112235Z 14002KT 32/10 A3005 RMK A01 T03210099  RH  026%=      5-min Rain = 0
KMES 112240Z 09003KT 32/10 A3005 RMK A01 T03190098  RH  026%=      5-min Rain = 0
KMES 112245Z 15004KT 32/10 A3005 RMK A01 T03170100  RH  027%=      5-min Rain = 0
KMES 112250Z 14002G7KT 32/10 A3005 RMK A01 T03190098  RH  026%=      5-min Rain = 0
KMES 112255Z 16004KT 32/10 A3005 RMK A01 T03180098  RH  027%=      5-min Rain = 0
KMES 112300Z 13006KT 32/10 A3005 RMK A01 T03160096  RH  027%=      5-min Rain = 0
KMES 112305Z 14005KT 31/10 A3005 RMK A01 T03130096  RH  027%=      5-min Rain = 0
KMES 112310Z 15006KT 31/10 A3005 RMK A01 T03130095  RH  027%=      5-min Rain = 0
KMES 112315Z 13004KT 31/10 A3005 RMK A01 T03110096  RH  027%=      5-min Rain = 0
KMES 112320Z 16004KT 31/10 A3005 RMK A01 T03100096  RH  027%=      5-min Rain = 0
KMES 112325Z 15006KT 31/10 A3005 RMK A01 T03130097  RH  027%=      5-min Rain = 0
KMES 112330Z 14007KT 31/10 A3005 RMK A01 T03120097  RH  027%=      5-min Rain = 0
KMES 112335Z 13006KT 31/10 A3005 RMK A01 T03100097  RH  028%=      5-min Rain = 0
KMES 112340Z 12006KT 31/10 A3005 RMK A01 T03100098  RH  028%=      5-min Rain = 0
KMES 112345Z 14008KT 31/10 A3005 RMK A01 T03080098  RH  028%=      5-min Rain = 0
KMES 112350Z 14007KT 31/10 A3005 RMK A01 T03070099  RH  029%=      5-min Rain = 0
KMES 112355Z 12007KT 31/10 A3005 RMK A01 T03060097  RH  028%=      5-min Rain = 0
KMES 120000Z 11006KT 30/10 A3005 RMK A01 T03030098  RH  029%=      5-min Rain = 0
KMES 120005Z 11007KT 30/10 A3005 RMK A01 T03020099  RH  029%=      5-min Rain = 0
KMES 120010Z 11007KT 30/10 A3005 RMK A01 T03000099  RH  030%=      5-min Rain = 0
KMES 120015Z 11007KT 30/10 A3005 RMK A01 T02980100  RH  030%=      5-min Rain = 0
KMES 120020Z 11007KT 30/10 A3005 RMK A01 T02950100  RH  031%=      5-min Rain = 0
KMES 120025Z 11006KT 29/10 A3005 RMK A01 T02930100  RH  031%=      5-min Rain = 0
KMES 120030Z 10006KT 29/10 A3005 RMK A01 T02900102  RH  032%=      5-min Rain = 0
KMES 120035Z 10006KT 29/10 A3005 RMK A01 T02860103  RH  033%=      5-min Rain = 0
KMES 120040Z 09006KT 28/10 A3005 RMK A01 T02830103  RH  034%=      5-min Rain = 0
KMES 120045Z 10005KT 28/10 A3005 RMK A01 T02790104  RH  035%=      5-min Rain = 0
KMES 120050Z 10005KT 28/11 A3005 RMK A01 T02770105  RH  035%=      5-min Rain = 0
KMES 120055Z 09006KT 27/11 A3005 RMK A01 T02730107  RH  037%=      5-min Rain = 0
KMES 120100Z 09005KT 27/11 A3005 RMK A01 T02700108  RH  037%=      5-min Rain = 0
KMES 120105Z 09005KT 27/11 A3005 RMK A01 T02670109  RH  038%=      5-min Rain = 0
KMES 120110Z 08005KT 27/11 A3005 RMK A01 T02650110  RH  039%=      5-min Rain = 0
KMES 120115Z 08005KT 26/11 A3005 RMK A01 T02620110  RH  040%=      5-min Rain = 0
KMES 120120Z 08005KT 26/11 A3005 RMK A01 T02590110  RH  041%=      5-min Rain = 0
KMES 120125Z 08005KT 26/11 A3005 RMK A01 T02570110  RH  041%=      5-min Rain = 0
KMES 120130Z 09004KT 26/11 A3006 RMK A01 T02550110  RH  042%=      5-min Rain = 0
KMES 120135Z 08004KT 25/11 A3005 RMK A01 T02530111  RH  042%=      5-min Rain = 0
KMES 120140Z 08004KT 25/11 A3006 RMK A01 T02510111  RH  043%=      5-min Rain = 0
KMES 120145Z 08004KT 25/11 A3006 RMK A01 T02480111  RH  044%=      5-min Rain = 0
KMES 120150Z 08003KT 25/11 A3006 RMK A01 T02460112  RH  044%=      5-min Rain = 0
KMES 120155Z 07003KT 24/11 A3006 RMK A01 T02440112  RH  045%=      5-min Rain = 0
KMES 120200Z 07002KT 24/11 A3006 RMK A01 T02420111  RH  045%=      5-min Rain = 0
KMES 120205Z 07002KT 24/11 A3006 RMK A01 T02390112  RH  046%=      5-min Rain = 0
KMES 120210Z 07003KT 24/11 A3006 RMK A01 T02370112  RH  047%=      5-min Rain = 0
KMES 120215Z 06003KT 24/11 A3007 RMK A01 T02350112  RH  048%=      5-min Rain = 0
KMES 120220Z 06003KT 23/11 A3007 RMK A01 T02310112  RH  049%=      5-min Rain = 0
KMES 120225Z 07003KT 23/11 A3007 RMK A01 T02280112  RH  050%=      5-min Rain = 0
KMES 120230Z 08002KT 23/11 A3007 RMK A01 T02250112  RH  051%=      5-min Rain = 0
KMES 120235Z 10001KT 22/11 A3007 RMK A01 T02230112  RH  051%=      5-min Rain = 0
KMES 120240Z 07000KT 22/11 A3007 RMK A01 T02230113  RH  051%=      5-min Rain = 0
KMES 120245Z 07001KT 22/11 A3007 RMK A01 T02230112  RH  051%=      5-min Rain = 0
KMES 120250Z 07002KT 22/11 A3007 RMK A01 T02190110  RH  052%=      5-min Rain = 0
KMES 120255Z 06002KT 21/11 A3007 RMK A01 T02120110  RH  054%=      5-min Rain = 0
KMES 120300Z 06002KT 21/11 A3008 RMK A01 T02080110  RH  055%=      5-min Rain = 0
KMES 120305Z 05003KT 21/11 A3008 RMK A01 T02060110  RH  056%=      5-min Rain = 0
KMES 120310Z 05003KT 20/11 A3008 RMK A01 T02030110  RH  057%=      5-min Rain = 0
KMES 120315Z 04002KT 20/11 A3008 RMK A01 T02040110  RH  057%=      5-min Rain = 0
KMES 120320Z 31001KT 21/11 A3008 RMK A01 T02080112  RH  056%=      5-min Rain = 0
KMES 120325Z 25001KT 21/11 A3008 RMK A01 T02110112  RH  055%=      5-min Rain = 0
KMES 120330Z 00000KT 21/11 A3008 RMK A01 T02080113  RH  056%=      5-min Rain = 0
KMES 120335Z 01000KT 20/11 A3008 RMK A01 T02010112  RH  059%=      5-min Rain = 0
KMES 120340Z 00000KT 20/11 A3008 RMK A01 T01990114  RH  060%=      5-min Rain = 0
KMES 120345Z 08001KT 20/11 A3008 RMK A01 T02030112  RH  058%=      5-min Rain = 0
KMES 120350Z 07002KT 20/11 A3008 RMK A01 T01990110  RH  058%=      5-min Rain = 0
KMES 120355Z 07001KT 20/11 A3009 RMK A01 T01950109  RH  060%=      5-min Rain = 0
KMES 120400Z 30001KT 20/11 A3009 RMK A01 T01960112  RH  060%=      5-min Rain = 0
KMES 120405Z 29002KT 20/11 A3009 RMK A01 T01980113  RH  060%=      5-min Rain = 0
KMES 120410Z 30002KT 19/11 A3009 RMK A01 T01940114  RH  062%=      5-min Rain = 0
KMES 120415Z 31002KT 19/11 A3009 RMK A01 T01940113  RH  061%=      5-min Rain = 0
KMES 120420Z 31003KT 20/11 A3009 RMK A01 T01950114  RH  062%=      5-min Rain = 0
KMES 120425Z 32003KT 20/11 A3009 RMK A01 T01950112  RH  061%=      5-min Rain = 0
KMES 120430Z 32003KT 19/11 A3009 RMK A01 T01920112  RH  062%=      5-min Rain = 0
KMES 120435Z 32003KT 19/11 A3009 RMK A01 T01910113  RH  062%=      5-min Rain = 0
KMES 120440Z 32003KT 19/11 A3009 RMK A01 T01910113  RH  063%=      5-min Rain = 0
KMES 120445Z 32003KT 19/11 A3009 RMK A01 T01900113  RH  063%=      5-min Rain = 0
KMES 120450Z 32004KT 19/11 A3008 RMK A01 T01890113  RH  063%=      5-min Rain = 0
KMES 120455Z 32002KT 19/11 A3009 RMK A01 T01890113  RH  063%=      5-min Rain = 0

Page generated in 0.009 seconds.